sensor_id;sensor_type;location;lat;lon;timestamp;pressure;altitude;pressure_sealevel;temperature;humidity
69796;BME280;57073;45.650;9.612;2024-03-06T00:01:44;98719.16;;;9.08;70.84
69796;BME280;57073;45.650;9.612;2024-03-06T00:06:45;98723.00;;;9.12;70.82
69796;BME280;57073;45.650;9.612;2024-03-06T00:11:46;98736.09;;;9.08;71.75
69796;BME280;57073;45.650;9.612;2024-03-06T00:16:46;98737.22;;;9.24;71.33
69796;BME280;57073;45.650;9.612;2024-03-06T00:21:47;98744.84;;;9.16;70.93
69796;BME280;57073;45.650;9.612;2024-03-06T00:26:48;98736.09;;;9.08;70.74
69796;BME280;57073;45.650;9.612;2024-03-06T00:31:48;98741.00;;;9.12;70.95
69796;BME280;57073;45.650;9.612;2024-03-06T00:36:49;98738.00;;;9.08;71.11
69796;BME280;57073;45.650;9.612;2024-03-06T00:41:49;98726.59;;;9.18;70.61
69796;BME280;57073;45.650;9.612;2024-03-06T00:46:50;98730.81;;;9.14;71.36
69796;BME280;57073;45.650;9.612;2024-03-06T00:51:50;98747.16;;;9.24;71.21
69796;BME280;57073;45.650;9.612;2024-03-06T00:56:51;98755.59;;;9.16;71.32
69796;BME280;57073;45.650;9.612;2024-03-06T01:01:51;98759.94;;;9.17;71.93
69796;BME280;57073;45.650;9.612;2024-03-06T01:06:51;98771.06;;;9.08;71.40
69796;BME280;57073;45.650;9.612;2024-03-06T01:11:52;98759.56;;;8.84;71.50
69796;BME280;57073;45.650;9.612;2024-03-06T01:16:52;98749.91;;;8.72;72.06
69796;BME280;57073;45.650;9.612;2024-03-06T01:21:52;98750.47;;;8.74;71.87
69796;BME280;57073;45.650;9.612;2024-03-06T01:26:53;98755.47;;;8.82;70.98
69796;BME280;57073;45.650;9.612;2024-03-06T01:31:53;98764.03;;;8.67;71.37
69796;BME280;57073;45.650;9.612;2024-03-06T01:36:54;98755.06;;;8.61;71.52
69796;BME280;57073;45.650;9.612;2024-03-06T01:41:54;98727.50;;;8.54;71.48
69796;BME280;57073;45.650;9.612;2024-03-06T01:46:55;98746.75;;;8.63;71.34
69796;BME280;57073;45.650;9.612;2024-03-06T01:51:56;98752.03;;;8.58;71.21
69796;BME280;57073;45.650;9.612;2024-03-06T01:56:59;98762.06;;;8.62;71.62
69796;BME280;57073;45.650;9.612;2024-03-06T02:02:02;98768.88;;;8.41;71.38
69796;BME280;57073;45.650;9.612;2024-03-06T02:07:08;98773.56;;;8.46;71.28
69796;BME280;57073;45.650;9.612;2024-03-06T02:12:08;98772.13;;;8.55;70.04
69796;BME280;57073;45.650;9.612;2024-03-06T02:17:08;98780.31;;;8.60;69.70
69796;BME280;57073;45.650;9.612;2024-03-06T02:22:10;98799.72;;;8.15;71.60
69796;BME280;57073;45.650;9.612;2024-03-06T02:27:10;98793.75;;;8.01;72.51
69796;BME280;57073;45.650;9.612;2024-03-06T02:32:12;98803.69;;;8.01;72.94
69796;BME280;57073;45.650;9.612;2024-03-06T02:37:13;98799.69;;;8.03;73.52
69796;BME280;57073;45.650;9.612;2024-03-06T02:42:14;98810.53;;;7.97;72.75
69796;BME280;57073;45.650;9.612;2024-03-06T02:47:14;98825.72;;;7.91;73.19
69796;BME280;57073;45.650;9.612;2024-03-06T02:52:15;98829.09;;;7.86;73.98
69796;BME280;57073;45.650;9.612;2024-03-06T02:57:15;98838.06;;;7.80;74.63
69796;BME280;57073;45.650;9.612;2024-03-06T03:02:15;98808.44;;;7.75;74.43
69796;BME280;57073;45.650;9.612;2024-03-06T03:07:16;98778.09;;;7.86;72.02
69796;BME280;57073;45.650;9.612;2024-03-06T03:12:16;98792.66;;;7.67;71.96
69796;BME280;57073;45.650;9.612;2024-03-06T03:17:18;98823.31;;;7.10;70.53
69796;BME280;57073;45.650;9.612;2024-03-06T03:22:19;98818.53;;;7.31;74.02
69796;BME280;57073;45.650;9.612;2024-03-06T03:27:20;98791.28;;;7.46;74.39
69796;BME280;57073;45.650;9.612;2024-03-06T03:32:20;98773.56;;;7.45;74.29
69796;BME280;57073;45.650;9.612;2024-03-06T03:37:20;98787.00;;;7.57;73.36
69796;BME280;57073;45.650;9.612;2024-03-06T03:42:21;98768.31;;;7.38;69.90
69796;BME280;57073;45.650;9.612;2024-03-06T03:47:21;98785.94;;;7.15;70.37
69796;BME280;57073;45.650;9.612;2024-03-06T03:52:22;98797.59;;;7.21;69.04
69796;BME280;57073;45.650;9.612;2024-03-06T03:57:22;98798.31;;;6.98;69.47
69796;BME280;57073;45.650;9.612;2024-03-06T04:02:22;98789.63;;;7.14;68.13
69796;BME280;57073;45.650;9.612;2024-03-06T04:07:23;98796.84;;;7.32;66.85
69796;BME280;57073;45.650;9.612;2024-03-06T04:12:23;98794.19;;;7.14;66.56
69796;BME280;57073;45.650;9.612;2024-03-06T04:17:23;98786.97;;;7.14;66.47
69796;BME280;57073;45.650;9.612;2024-03-06T04:22:25;98801.59;;;6.82;65.60
69796;BME280;57073;45.650;9.612;2024-03-06T04:27:26;98797.16;;;7.06;65.44
69796;BME280;57073;45.650;9.612;2024-03-06T04:32:27;98796.81;;;7.02;65.40
69796;BME280;57073;45.650;9.612;2024-03-06T04:37:27;98800.81;;;7.11;64.37
69796;BME280;57073;45.650;9.612;2024-03-06T04:42:29;98817.00;;;7.05;64.26
69796;BME280;57073;45.650;9.612;2024-03-06T04:47:29;98812.75;;;6.97;64.40
69796;BME280;57073;45.650;9.612;2024-03-06T04:52:30;98818.19;;;6.90;64.24
69796;BME280;57073;45.650;9.612;2024-03-06T04:57:30;98809.06;;;6.61;64.46
69796;BME280;57073;45.650;9.612;2024-03-06T05:02:32;98810.06;;;6.78;63.95
69796;BME280;57073;45.650;9.612;2024-03-06T05:07:34;98820.63;;;6.73;64.27
69796;BME280;57073;45.650;9.612;2024-03-06T05:12:34;98833.44;;;6.71;64.17
69796;BME280;57073;45.650;9.612;2024-03-06T05:17:35;98832.56;;;6.77;63.80
69796;BME280;57073;45.650;9.612;2024-03-06T05:22:35;98843.28;;;6.77;63.38
69796;BME280;57073;45.650;9.612;2024-03-06T05:27:35;98851.50;;;6.83;62.38
69796;BME280;57073;45.650;9.612;2024-03-06T05:32:36;98847.16;;;6.63;62.26
69796;BME280;57073;45.650;9.612;2024-03-06T05:37:37;98842.16;;;6.67;62.36
69796;BME280;57073;45.650;9.612;2024-03-06T05:42:38;98845.50;;;6.62;62.30
69796;BME280;57073;45.650;9.612;2024-03-06T05:47:39;98841.69;;;6.51;62.86
69796;BME280;57073;45.650;9.612;2024-03-06T05:52:39;98862.91;;;6.53;63.43
69796;BME280;57073;45.650;9.612;2024-03-06T05:57:39;98861.28;;;6.52;63.10
69796;BME280;57073;45.650;9.612;2024-03-06T06:02:45;98863.06;;;6.58;62.72
69796;BME280;57073;45.650;9.612;2024-03-06T06:07:46;98859.44;;;6.71;62.19
69796;BME280;57073;45.650;9.612;2024-03-06T06:12:46;98865.00;;;6.88;61.95
69796;BME280;57073;45.650;9.612;2024-03-06T06:17:47;98877.22;;;7.02;61.86
69796;BME280;57073;45.650;9.612;2024-03-06T06:22:47;98887.34;;;7.18;61.71
69796;BME280;57073;45.650;9.612;2024-03-06T06:27:48;98900.84;;;7.30;61.96
69796;BME280;57073;45.650;9.612;2024-03-06T06:32:49;98915.75;;;7.45;61.20
69796;BME280;57073;45.650;9.612;2024-03-06T06:37:49;98917.00;;;7.61;60.57
69796;BME280;57073;45.650;9.612;2024-03-06T06:42:50;98924.94;;;7.67;61.12
69796;BME280;57073;45.650;9.612;2024-03-06T06:47:51;98918.41;;;7.63;60.57
69796;BME280;57073;45.650;9.612;2024-03-06T06:52:52;98930.09;;;7.69;60.26
69796;BME280;57073;45.650;9.612;2024-03-06T06:57:52;98931.75;;;7.70;60.38
69796;BME280;57073;45.650;9.612;2024-03-06T07:02:52;98943.66;;;7.74;60.49
69796;BME280;57073;45.650;9.612;2024-03-06T07:07:53;98947.28;;;7.80;60.12
69796;BME280;57073;45.650;9.612;2024-03-06T07:12:53;98951.66;;;7.92;60.06
69796;BME280;57073;45.650;9.612;2024-03-06T07:17:54;98957.03;;;7.92;60.48
69796;BME280;57073;45.650;9.612;2024-03-06T07:22:54;98959.41;;;8.01;59.23
69796;BME280;57073;45.650;9.612;2024-03-06T07:27:54;98960.31;;;7.94;59.96
69796;BME280;57073;45.650;9.612;2024-03-06T07:32:55;98974.94;;;7.99;60.57
69796;BME280;57073;45.650;9.612;2024-03-06T07:37:57;98984.91;;;8.22;60.31
69796;BME280;57073;45.650;9.612;2024-03-06T07:42:58;98985.34;;;8.49;59.48
69796;BME280;57073;45.650;9.612;2024-03-06T07:47:59;98992.97;;;8.76;59.77
69796;BME280;57073;45.650;9.612;2024-03-06T07:53:00;98996.31;;;9.01;58.66
69796;BME280;57073;45.650;9.612;2024-03-06T07:58:00;99001.09;;;8.99;58.36
69796;BME280;57073;45.650;9.612;2024-03-06T08:03:00;99007.06;;;9.25;58.88
69796;BME280;57073;45.650;9.612;2024-03-06T08:08:01;99006.28;;;9.65;58.79
69796;BME280;57073;45.650;9.612;2024-03-06T08:13:03;99012.91;;;9.86;57.91
69796;BME280;57073;45.650;9.612;2024-03-06T08:18:04;99018.13;;;9.64;57.10
69796;BME280;57073;45.650;9.612;2024-03-06T08:23:04;99025.81;;;9.72;58.26
69796;BME280;57073;45.650;9.612;2024-03-06T08:28:05;99040.31;;;10.23;57.50
69796;BME280;57073;45.650;9.612;2024-03-06T08:33:05;99044.28;;;10.33;56.63
69796;BME280;57073;45.650;9.612;2024-03-06T08:38:06;99048.13;;;10.66;57.04
69796;BME280;57073;45.650;9.612;2024-03-06T08:43:06;99056.63;;;10.91;55.88
69796;BME280;57073;45.650;9.612;2024-03-06T08:48:09;99061.03;;;10.97;56.15
69796;BME280;57073;45.650;9.612;2024-03-06T08:53:09;99063.81;;;10.86;54.67
69796;BME280;57073;45.650;9.612;2024-03-06T08:58:09;99077.22;;;10.97;55.25
69796;BME280;57073;45.650;9.612;2024-03-06T09:03:10;99085.16;;;11.04;55.35
69796;BME280;57073;45.650;9.612;2024-03-06T09:08:10;99093.22;;;10.70;54.60
69796;BME280;57073;45.650;9.612;2024-03-06T09:13:11;99089.66;;;10.82;54.96
69796;BME280;57073;45.650;9.612;2024-03-06T09:18:12;99094.75;;;10.66;55.85
69796;BME280;57073;45.650;9.612;2024-03-06T09:23:12;99100.91;;;10.61;56.18
69796;BME280;57073;45.650;9.612;2024-03-06T09:28:14;99116.81;;;10.63;56.70
69796;BME280;57073;45.650;9.612;2024-03-06T09:33:14;99113.06;;;10.64;56.69
69796;BME280;57073;45.650;9.612;2024-03-06T09:38:14;99108.38;;;10.59;59.88
69796;BME280;57073;45.650;9.612;2024-03-06T09:43:15;99116.75;;;10.58;60.18
69796;BME280;57073;45.650;9.612;2024-03-06T09:48:17;99119.81;;;10.50;62.34
69796;BME280;57073;45.650;9.612;2024-03-06T09:53:21;99119.38;;;10.41;61.32
69796;BME280;57073;45.650;9.612;2024-03-06T09:58:23;99134.53;;;10.18;61.00
69796;BME280;57073;45.650;9.612;2024-03-06T10:03:23;99138.91;;;9.84;62.73
69796;BME280;57073;45.650;9.612;2024-03-06T10:08:24;99124.16;;;9.98;63.90
69796;BME280;57073;45.650;9.612;2024-03-06T10:13:27;99123.31;;;9.98;64.29
69796;BME280;57073;45.650;9.612;2024-03-06T10:18:29;99135.22;;;10.14;65.09
69796;BME280;57073;45.650;9.612;2024-03-06T10:23:29;99136.97;;;10.32;65.59
69796;BME280;57073;45.650;9.612;2024-03-06T10:28:32;99134.03;;;10.21;64.30
69796;BME280;57073;45.650;9.612;2024-03-06T10:33:32;99127.84;;;10.33;62.92
69796;BME280;57073;45.650;9.612;2024-03-06T10:38:36;99145.88;;;10.20;63.32
69796;BME280;57073;45.650;9.612;2024-03-06T10:43:39;99151.50;;;10.19;64.37
69796;BME280;57073;45.650;9.612;2024-03-06T10:48:41;99172.94;;;10.26;63.30
69796;BME280;57073;45.650;9.612;2024-03-06T10:53:43;99182.44;;;10.04;63.40
69796;BME280;57073;45.650;9.612;2024-03-06T10:58:45;99171.44;;;9.94;62.41
69796;BME280;57073;45.650;9.612;2024-03-06T11:03:47;99169.13;;;9.86;65.03
69796;BME280;57073;45.650;9.612;2024-03-06T11:08:48;99167.59;;;9.90;65.20
69796;BME280;57073;45.650;9.612;2024-03-06T11:13:48;99165.72;;;9.91;66.22
69796;BME280;57073;45.650;9.612;2024-03-06T11:18:49;99150.63;;;9.90;66.40
69796;BME280;57073;45.650;9.612;2024-03-06T11:29:18;99164.59;;;10.39;66.15
69796;BME280;57073;45.650;9.612;2024-03-06T11:34:21;99160.06;;;10.68;65.24
69796;BME280;57073;45.650;9.612;2024-03-06T11:39:22;99160.13;;;10.85;65.94
69796;BME280;57073;45.650;9.612;2024-03-06T11:44:23;99156.44;;;10.91;64.25
69796;BME280;57073;45.650;9.612;2024-03-06T11:49:25;99153.94;;;11.02;64.72
69796;BME280;57073;45.650;9.612;2024-03-06T11:54:26;99152.13;;;11.07;61.70
69796;BME280;57073;45.650;9.612;2024-03-06T11:59:31;99142.00;;;11.14;61.17
69796;BME280;57073;45.650;9.612;2024-03-06T12:04:33;99149.13;;;11.37;60.59
69796;BME280;57073;45.650;9.612;2024-03-06T12:09:36;99146.50;;;11.26;60.75
69796;BME280;57073;45.650;9.612;2024-03-06T12:14:37;99142.66;;;11.22;59.94
69796;BME280;57073;45.650;9.612;2024-03-06T12:19:39;99158.38;;;11.42;59.68
69796;BME280;57073;45.650;9.612;2024-03-06T12:24:42;99151.59;;;11.56;59.09
69796;BME280;57073;45.650;9.612;2024-03-06T12:29:43;99137.34;;;11.61;58.49
69796;BME280;57073;45.650;9.612;2024-03-06T12:34:43;99133.97;;;11.53;58.22
69796;BME280;57073;45.650;9.612;2024-03-06T12:39:44;99137.88;;;11.57;57.34
69796;BME280;57073;45.650;9.612;2024-03-06T12:44:44;99128.44;;;11.60;57.49
69796;BME280;57073;45.650;9.612;2024-03-06T12:49:45;99125.81;;;11.65;56.86
69796;BME280;57073;45.650;9.612;2024-03-06T12:54:45;99122.22;;;11.60;57.26
69796;BME280;57073;45.650;9.612;2024-03-06T12:59:45;99123.50;;;11.57;56.29
69796;BME280;57073;45.650;9.612;2024-03-06T13:04:46;99128.09;;;11.73;56.49
69796;BME280;57073;45.650;9.612;2024-03-06T13:09:46;99130.06;;;11.78;55.07
69796;BME280;57073;45.650;9.612;2024-03-06T13:14:47;99112.09;;;11.89;55.40
69796;BME280;57073;45.650;9.612;2024-03-06T13:19:47;99123.56;;;11.96;55.16
69796;BME280;57073;45.650;9.612;2024-03-06T13:24:48;99122.13;;;12.10;55.30
69796;BME280;57073;45.650;9.612;2024-03-06T13:29:48;99121.41;;;11.98;54.45
69796;BME280;57073;45.650;9.612;2024-03-06T13:34:49;99129.44;;;11.93;55.72
69796;BME280;57073;45.650;9.612;2024-03-06T13:39:49;99133.19;;;11.92;55.76
69796;BME280;57073;45.650;9.612;2024-03-06T13:44:50;99125.53;;;11.84;56.04
69796;BME280;57073;45.650;9.612;2024-03-06T13:49:51;99122.69;;;11.73;56.36
69796;BME280;57073;45.650;9.612;2024-03-06T13:54:51;99123.13;;;11.65;55.87
69796;BME280;57073;45.650;9.612;2024-03-06T13:59:52;99119.91;;;11.68;56.60
69796;BME280;57073;45.650;9.612;2024-03-06T14:04:52;99126.72;;;11.71;57.03
69796;BME280;57073;45.650;9.612;2024-03-06T14:09:52;99124.56;;;11.73;58.10
69796;BME280;57073;45.650;9.612;2024-03-06T14:14:53;99119.34;;;11.66;58.00
69796;BME280;57073;45.650;9.612;2024-03-06T14:19:53;99121.97;;;11.61;57.78
69796;BME280;57073;45.650;9.612;2024-03-06T14:24:55;99123.75;;;11.55;58.58
69796;BME280;57073;45.650;9.612;2024-03-06T14:29:55;99116.00;;;11.59;58.03
69796;BME280;57073;45.650;9.612;2024-03-06T14:34:55;99113.84;;;11.61;56.79
69796;BME280;57073;45.650;9.612;2024-03-06T14:39:56;99110.91;;;11.80;56.97
69796;BME280;57073;45.650;9.612;2024-03-06T14:44:56;99109.81;;;11.81;54.62
69796;BME280;57073;45.650;9.612;2024-03-06T14:49:57;99110.91;;;11.80;52.81
69796;BME280;57073;45.650;9.612;2024-03-06T14:54:57;99096.63;;;11.84;52.07
69796;BME280;57073;45.650;9.612;2024-03-06T14:59:58;99095.81;;;11.84;51.07
69796;BME280;57073;45.650;9.612;2024-03-06T15:04:58;99091.47;;;11.83;50.43
69796;BME280;57073;45.650;9.612;2024-03-06T15:09:58;99100.34;;;11.78;49.47
69796;BME280;57073;45.650;9.612;2024-03-06T15:14:59;99102.22;;;11.78;50.57
69796;BME280;57073;45.650;9.612;2024-03-06T15:20:00;99097.97;;;11.82;51.05
69796;BME280;57073;45.650;9.612;2024-03-06T15:25:01;99088.97;;;11.76;49.40
69796;BME280;57073;45.650;9.612;2024-03-06T15:30:02;99107.25;;;11.91;50.81
69796;BME280;57073;45.650;9.612;2024-03-06T15:35:04;99100.22;;;11.90;50.31
69796;BME280;57073;45.650;9.612;2024-03-06T15:40:05;99110.38;;;11.83;49.73
69796;BME280;57073;45.650;9.612;2024-03-06T15:45:06;99101.91;;;11.74;49.09
69796;BME280;57073;45.650;9.612;2024-03-06T15:50:07;99089.94;;;11.87;50.48
69796;BME280;57073;45.650;9.612;2024-03-06T15:55:09;99095.66;;;11.73;49.77
69796;BME280;57073;45.650;9.612;2024-03-06T16:00:10;99109.31;;;11.84;50.66
69796;BME280;57073;45.650;9.612;2024-03-06T16:05:15;99104.34;;;11.75;49.26
69796;BME280;57073;45.650;9.612;2024-03-06T16:10:15;99112.66;;;11.91;49.90
69796;BME280;57073;45.650;9.612;2024-03-06T16:15:16;99112.41;;;11.19;50.62
69796;BME280;57073;45.650;9.612;2024-03-06T16:20:16;99116.16;;;11.02;50.31
69796;BME280;57073;45.650;9.612;2024-03-06T16:25:16;99124.97;;;11.14;48.96
69796;BME280;57073;45.650;9.612;2024-03-06T16:30:17;99117.16;;;10.67;50.34
69796;BME280;57073;45.650;9.612;2024-03-06T16:35:17;99120.44;;;10.69;51.74
69796;BME280;57073;45.650;9.612;2024-03-06T16:40:18;99130.69;;;11.00;52.26
69796;BME280;57073;45.650;9.612;2024-03-06T16:45:18;99130.69;;;11.17;51.82
69796;BME280;57073;45.650;9.612;2024-03-06T16:50:18;99134.47;;;11.33;51.60
69796;BME280;57073;45.650;9.612;2024-03-06T16:55:20;99138.22;;;11.15;50.94
69796;BME280;57073;45.650;9.612;2024-03-06T17:00:20;99142.56;;;10.99;51.21
69796;BME280;57073;45.650;9.612;2024-03-06T17:05:22;99150.53;;;11.23;51.92
69796;BME280;57073;45.650;9.612;2024-03-06T17:10:22;99160.44;;;10.89;51.18
69796;BME280;57073;45.650;9.612;2024-03-06T17:15:23;99157.00;;;10.93;50.77
69796;BME280;57073;45.650;9.612;2024-03-06T17:20:24;99172.41;;;11.10;50.78
69796;BME280;57073;45.650;9.612;2024-03-06T17:25:24;99175.53;;;11.02;50.82
69796;BME280;57073;45.650;9.612;2024-03-06T17:30:25;99177.72;;;11.05;51.50
69796;BME280;57073;45.650;9.612;2024-03-06T17:35:27;99192.38;;;11.09;51.81
69796;BME280;57073;45.650;9.612;2024-03-06T17:40:27;99196.66;;;11.22;51.94
69796;BME280;57073;45.650;9.612;2024-03-06T17:45:27;99198.44;;;11.16;51.07
69796;BME280;57073;45.650;9.612;2024-03-06T17:50:29;99203.91;;;11.21;51.65
69796;BME280;57073;45.650;9.612;2024-03-06T17:55:33;99206.03;;;11.19;50.98
69796;BME280;57073;45.650;9.612;2024-03-06T18:00:33;99209.56;;;11.19;51.37
69796;BME280;57073;45.650;9.612;2024-03-06T18:05:34;99204.63;;;10.99;52.34
69796;BME280;57073;45.650;9.612;2024-03-06T18:10:34;99209.31;;;11.21;51.85
69796;BME280;57073;45.650;9.612;2024-03-06T18:15:35;99212.66;;;11.28;52.78
69796;BME280;57073;45.650;9.612;2024-03-06T18:20:35;99200.53;;;11.14;55.26
69796;BME280;57073;45.650;9.612;2024-03-06T18:25:35;99202.56;;;11.07;56.75
69796;BME280;57073;45.650;9.612;2024-03-06T18:30:35;99203.88;;;11.04;57.99
69796;BME280;57073;45.650;9.612;2024-03-06T18:35:36;99202.09;;;11.10;58.14
69796;BME280;57073;45.650;9.612;2024-03-06T18:40:36;99210.25;;;10.98;59.18
69796;BME280;57073;45.650;9.612;2024-03-06T18:45:37;99213.19;;;10.96;58.22
69796;BME280;57073;45.650;9.612;2024-03-06T18:50:37;99211.94;;;10.87;58.39
69796;BME280;57073;45.650;9.612;2024-03-06T18:55:38;99219.59;;;10.78;58.23
69796;BME280;57073;45.650;9.612;2024-03-06T19:00:38;99222.94;;;10.57;56.47
69796;BME280;57073;45.650;9.612;2024-03-06T19:05:38;99231.25;;;10.55;55.27
69796;BME280;57073;45.650;9.612;2024-03-06T19:10:39;99228.03;;;10.70;54.89
69796;BME280;57073;45.650;9.612;2024-03-06T19:15:39;99230.50;;;10.72;55.03
69796;BME280;57073;45.650;9.612;2024-03-06T19:20:39;99232.63;;;10.70;54.74
69796;BME280;57073;45.650;9.612;2024-03-06T19:25:40;99228.09;;;10.58;55.13
69796;BME280;57073;45.650;9.612;2024-03-06T19:30:40;99233.72;;;10.45;54.73
69796;BME280;57073;45.650;9.612;2024-03-06T19:35:40;99241.34;;;10.48;55.07
69796;BME280;57073;45.650;9.612;2024-03-06T19:40:41;99233.66;;;10.16;55.20
69796;BME280;57073;45.650;9.612;2024-03-06T19:45:42;99244.19;;;10.06;55.03
69796;BME280;57073;45.650;9.612;2024-03-06T19:50:42;99244.16;;;10.30;55.05
69796;BME280;57073;45.650;9.612;2024-03-06T19:55:46;99249.81;;;9.93;54.90
69796;BME280;57073;45.650;9.612;2024-03-06T20:00:48;99247.91;;;9.81;55.41
69796;BME280;57073;45.650;9.612;2024-03-06T20:05:48;99256.94;;;9.75;55.71
69796;BME280;57073;45.650;9.612;2024-03-06T20:10:48;99250.59;;;9.70;55.56
69796;BME280;57073;45.650;9.612;2024-03-06T20:15:49;99262.94;;;9.35;57.25
69796;BME280;57073;45.650;9.612;2024-03-06T20:20:49;99274.06;;;9.51;56.62
69796;BME280;57073;45.650;9.612;2024-03-06T20:25:49;99275.41;;;8.99;58.11
69796;BME280;57073;45.650;9.612;2024-03-06T20:30:50;99277.38;;;8.92;57.91
69796;BME280;57073;45.650;9.612;2024-03-06T20:35:52;99274.75;;;9.04;58.27
69796;BME280;57073;45.650;9.612;2024-03-06T20:40:53;99286.69;;;9.08;57.92
69796;BME280;57073;45.650;9.612;2024-03-06T20:45:53;99289.59;;;9.06;58.22
69796;BME280;57073;45.650;9.612;2024-03-06T20:50:54;99287.22;;;8.80;58.98
69796;BME280;57073;45.650;9.612;2024-03-06T20:55:55;99292.84;;;8.97;58.47
69796;BME280;57073;45.650;9.612;2024-03-06T21:00:55;99293.31;;;9.05;58.21
69796;BME280;57073;45.650;9.612;2024-03-06T21:05:55;99300.22;;;9.01;58.58
69796;BME280;57073;45.650;9.612;2024-03-06T21:10:56;99304.56;;;9.02;58.96
69796;BME280;57073;45.650;9.612;2024-03-06T21:15:58;99307.41;;;9.07;59.43
69796;BME280;57073;45.650;9.612;2024-03-06T21:20:59;99312.56;;;8.91;59.58
69796;BME280;57073;45.650;9.612;2024-03-06T21:26:00;99311.75;;;8.90;59.65
69796;BME280;57073;45.650;9.612;2024-03-06T21:31:00;99317.50;;;8.94;59.72
69796;BME280;57073;45.650;9.612;2024-03-06T21:36:00;99316.69;;;8.93;60.17
69796;BME280;57073;45.650;9.612;2024-03-06T21:41:01;99322.91;;;8.87;60.63
69796;BME280;57073;45.650;9.612;2024-03-06T21:46:01;99322.88;;;8.94;59.54
69796;BME280;57073;45.650;9.612;2024-03-06T21:51:03;99323.97;;;8.67;60.83
69796;BME280;57073;45.650;9.612;2024-03-06T21:56:03;99318.13;;;8.70;60.09
69796;BME280;57073;45.650;9.612;2024-03-06T22:01:04;99325.00;;;9.03;59.11
69796;BME280;57073;45.650;9.612;2024-03-06T22:06:05;99325.56;;;8.94;59.76
69796;BME280;57073;45.650;9.612;2024-03-06T22:11:06;99326.34;;;8.76;60.50
69796;BME280;57073;45.650;9.612;2024-03-06T22:16:08;99330.63;;;9.02;60.13
69796;BME280;57073;45.650;9.612;2024-03-06T22:21:08;99321.88;;;8.88;60.56
69796;BME280;57073;45.650;9.612;2024-03-06T22:26:09;99330.88;;;9.00;60.43
69796;BME280;57073;45.650;9.612;2024-03-06T22:31:09;99329.44;;;8.98;60.95
69796;BME280;57073;45.650;9.612;2024-03-06T22:36:16;99323.53;;;9.07;60.84
69796;BME280;57073;45.650;9.612;2024-03-06T22:41:21;99327.84;;;9.08;61.40
69796;BME280;57073;45.650;9.612;2024-03-06T22:46:22;99319.84;;;9.02;61.33
69796;BME280;57073;45.650;9.612;2024-03-06T22:51:23;99324.41;;;9.01;60.73
69796;BME280;57073;45.650;9.612;2024-03-06T22:56:23;99330.94;;;8.94;61.86
69796;BME280;57073;45.650;9.612;2024-03-06T23:01:24;99331.53;;;8.96;61.40
69796;BME280;57073;45.650;9.612;2024-03-06T23:06:24;99336.69;;;8.97;60.98
69796;BME280;57073;45.650;9.612;2024-03-06T23:11:25;99332.81;;;8.93;60.80
69796;BME280;57073;45.650;9.612;2024-03-06T23:16:25;99334.56;;;8.81;61.41
69796;BME280;57073;45.650;9.612;2024-03-06T23:21:25;99340.38;;;8.59;61.11
69796;BME280;57073;45.650;9.612;2024-03-06T23:26:25;99334.94;;;8.66;60.85
69796;BME280;57073;45.650;9.612;2024-03-06T23:31:26;99343.38;;;8.69;61.02
69796;BME280;57073;45.650;9.612;2024-03-06T23:36:27;99347.09;;;8.68;61.87
69796;BME280;57073;45.650;9.612;2024-03-06T23:41:27;99340.81;;;8.75;61.46
69796;BME280;57073;45.650;9.612;2024-03-06T23:46:29;99338.28;;;8.80;61.73
69796;BME280;57073;45.650;9.612;2024-03-06T23:51:29;99337.69;;;8.78;61.98
69796;BME280;57073;45.650;9.612;2024-03-06T23:56:29;99329.84;;;8.76;61.74
